sensor_id;sensor_type;location;lat;lon;timestamp;pressure;altitude;pressure_sealevel;temperature;humidity
47710;BME280;33473;51.640;5.892;2023-04-04T00:08:57;102900;;;6.5;44.0
47710;BME280;33473;51.640;5.892;2023-04-04T00:22:17;102900;;;6.4;44.0
47710;BME280;33473;51.640;5.892;2023-04-04T00:35:36;102900;;;6.5;44.0
47710;BME280;33473;51.640;5.892;2023-04-04T00:48:56;102800;;;6.4;44.0
47710;BME280;33473;51.640;5.892;2023-04-04T01:02:16;102800;;;6.4;44.0
47710;BME280;33473;51.640;5.892;2023-04-04T01:15:35;102800;;;6.2;44.0
47710;BME280;33473;51.640;5.892;2023-04-04T01:28:55;102800;;;6.3;44.0
47710;BME280;33473;51.640;5.892;2023-04-04T01:42:15;102800;;;6.4;44.0
47710;BME280;33473;51.640;5.892;2023-04-04T01:55:34;102800;;;6.2;44.0
47710;BME280;33473;51.640;5.892;2023-04-04T02:08:54;102800;;;6.0;44.0
47710;BME280;33473;51.640;5.892;2023-04-04T02:22:14;102800;;;6.0;44.0
47710;BME280;33473;51.640;5.892;2023-04-04T02:35:34;102800;;;6.0;44.0
47710;BME280;33473;51.640;5.892;2023-04-04T02:48:53;102800;;;5.9;45.0
47710;BME280;33473;51.640;5.892;2023-04-04T03:02:13;102800;;;5.8;45.0
47710;BME280;33473;51.640;5.892;2023-04-04T03:15:33;102800;;;5.7;45.0
47710;BME280;33473;51.640;5.892;2023-04-04T03:28:52;102800;;;5.5;45.0
47710;BME280;33473;51.640;5.892;2023-04-04T03:42:12;102800;;;5.5;45.0
47710;BME280;33473;51.640;5.892;2023-04-04T03:55:32;102800;;;5.5;45.0
47710;BME280;33473;51.640;5.892;2023-04-04T04:08:51;102800;;;5.5;45.0
47710;BME280;33473;51.640;5.892;2023-04-04T04:22:11;102800;;;5.4;45.0
47710;BME280;33473;51.640;5.892;2023-04-04T04:35:31;102800;;;5.3;45.0
47710;BME280;33473;51.640;5.892;2023-04-04T04:48:50;102800;;;5.1;46.0
47710;BME280;33473;51.640;5.892;2023-04-04T05:02:10;102800;;;5.0;46.0
47710;BME280;33473;51.640;5.892;2023-04-04T05:15:30;102800;;;4.8;47.0
47710;BME280;33473;51.640;5.892;2023-04-04T05:28:49;102800;;;5.0;47.0
47710;BME280;33473;51.640;5.892;2023-04-04T05:42:09;102800;;;4.9;48.0
47710;BME280;33473;51.640;5.892;2023-04-04T05:55:29;102800;;;5.0;48.0
47710;BME280;33473;51.640;5.892;2023-04-04T06:08:48;102800;;;5.3;48.0
47710;BME280;33473;51.640;5.892;2023-04-04T06:22:08;102800;;;6.3;49.0
47710;BME280;33473;51.640;5.892;2023-04-04T06:35:28;102800;;;8.3;44.0
47710;BME280;33473;51.640;5.892;2023-04-04T06:48:47;102900;;;8.2;44.0
47710;BME280;33473;51.640;5.892;2023-04-04T07:02:07;102900;;;9.1;43.0
47710;BME280;33473;51.640;5.892;2023-04-04T07:15:27;102900;;;9.5;41.0
47710;BME280;33473;51.640;5.892;2023-04-04T07:28:46;102900;;;10.3;40.0
47710;BME280;33473;51.640;5.892;2023-04-04T07:42:06;102900;;;11.2;36.0
47710;BME280;33473;51.640;5.892;2023-04-04T07:55:26;102800;;;13.5;31.0
47710;BME280;33473;51.640;5.892;2023-04-04T08:08:45;102800;;;14.0;29.0
47710;BME280;33473;51.640;5.892;2023-04-04T08:22:05;102800;;;13.9;29.0
47710;BME280;33473;51.640;5.892;2023-04-04T08:35:25;102800;;;15.6;26.0
47710;BME280;33473;51.640;5.892;2023-04-04T08:48:44;102800;;;16.5;23.0
47710;BME280;33473;51.640;5.892;2023-04-04T09:02:04;102800;;;17.6;23.0
47710;BME280;33473;51.640;5.892;2023-04-04T09:15:24;102800;;;16.6;23.0
47710;BME280;33473;51.640;5.892;2023-04-04T09:28:43;102800;;;17.0;23.0
47710;BME280;33473;51.640;5.892;2023-04-04T09:42:03;102800;;;17.3;23.0
47710;BME280;33473;51.640;5.892;2023-04-04T09:55:23;102800;;;17.6;22.0
47710;BME280;33473;51.640;5.892;2023-04-04T10:08:42;102800;;;16.6;23.0
47710;BME280;33473;51.640;5.892;2023-04-04T10:22:02;102800;;;16.2;24.0
47710;BME280;33473;51.640;5.892;2023-04-04T10:35:22;102800;;;17.0;23.0
47710;BME280;33473;51.640;5.892;2023-04-04T10:48:41;102800;;;18.5;23.0
47710;BME280;33473;51.640;5.892;2023-04-04T11:02:01;102800;;;18.2;21.0
47710;BME280;33473;51.640;5.892;2023-04-04T11:15:21;102800;;;18.9;20.0
47710;BME280;33473;51.640;5.892;2023-04-04T11:28:40;102700;;;18.2;22.0
47710;BME280;33473;51.640;5.892;2023-04-04T11:42:00;102700;;;17.6;22.0
47710;BME280;33473;51.640;5.892;2023-04-04T11:55:20;102700;;;17.7;21.0
47710;BME280;33473;51.640;5.892;2023-04-04T12:08:40;102700;;;18.1;21.0
47710;BME280;33473;51.640;5.892;2023-04-04T12:21:59;102700;;;17.8;25.0
47710;BME280;33473;51.640;5.892;2023-04-04T12:35:19;102700;;;17.6;23.0
47710;BME280;33473;51.640;5.892;2023-04-04T12:48:39;102600;;;16.7;23.0
47710;BME280;33473;51.640;5.892;2023-04-04T13:01:58;102600;;;16.2;28.0
47710;BME280;33473;51.640;5.892;2023-04-04T13:15:18;102600;;;17.4;24.0
47710;BME280;33473;51.640;5.892;2023-04-04T13:28:38;102600;;;16.4;26.0
47710;BME280;33473;51.640;5.892;2023-04-04T13:41:57;102600;;;18.0;23.0
47710;BME280;33473;51.640;5.892;2023-04-04T13:55:17;102600;;;17.8;25.0
47710;BME280;33473;51.640;5.892;2023-04-04T14:08:37;102600;;;18.2;22.0
47710;BME280;33473;51.640;5.892;2023-04-04T14:21:56;102500;;;19.5;21.0
47710;BME280;33473;51.640;5.892;2023-04-04T14:35:16;102500;;;18.6;23.0
47710;BME280;33473;51.640;5.892;2023-04-04T14:48:36;102500;;;17.6;23.0
47710;BME280;33473;51.640;5.892;2023-04-04T15:01:55;102500;;;18.0;25.0
47710;BME280;33473;51.640;5.892;2023-04-04T15:15:15;102500;;;19.5;23.0
47710;BME280;33473;51.640;5.892;2023-04-04T15:28:35;102500;;;17.0;25.0
47710;BME280;33473;51.640;5.892;2023-04-04T15:41:55;102500;;;18.0;23.0
47710;BME280;33473;51.640;5.892;2023-04-04T15:55:14;102500;;;19.1;24.0
47710;BME280;33473;51.640;5.892;2023-04-04T16:08:34;102400;;;19.2;22.0
47710;BME280;33473;51.640;5.892;2023-04-04T16:21:54;102400;;;17.0;25.0
47710;BME280;33473;51.640;5.892;2023-04-04T16:35:13;102400;;;16.6;25.0
47710;BME280;33473;51.640;5.892;2023-04-04T16:48:33;102400;;;16.2;26.0
47710;BME280;33473;51.640;5.892;2023-04-04T17:01:53;102400;;;16.3;28.0
47710;BME280;33473;51.640;5.892;2023-04-04T17:15:12;102400;;;15.1;27.0
47710;BME280;33473;51.640;5.892;2023-04-04T17:28:32;102400;;;15.6;28.0
47710;BME280;33473;51.640;5.892;2023-04-04T17:41:52;102400;;;15.4;30.0
47710;BME280;33473;51.640;5.892;2023-04-04T17:55:11;102400;;;15.0;29.0
47710;BME280;33473;51.640;5.892;2023-04-04T18:08:31;102400;;;14.7;30.0
47710;BME280;33473;51.640;5.892;2023-04-04T18:21:51;102400;;;14.2;30.0
47710;BME280;33473;51.640;5.892;2023-04-04T18:35:10;102400;;;13.8;31.0
47710;BME280;33473;51.640;5.892;2023-04-04T19:01:50;102400;;;13.2;32.0
47710;BME280;33473;51.640;5.892;2023-04-04T19:15:09;102400;;;12.9;32.0
47710;BME280;33473;51.640;5.892;2023-04-04T19:28:29;102400;;;12.6;31.0
47710;BME280;33473;51.640;5.892;2023-04-04T19:41:49;102400;;;12.2;30.0
47710;BME280;33473;51.640;5.892;2023-04-04T19:55:08;102400;;;11.9;35.0
47710;BME280;33473;51.640;5.892;2023-04-04T20:08:28;102400;;;11.6;33.0
47710;BME280;33473;51.640;5.892;2023-04-04T20:21:48;102400;;;11.4;38.0
47710;BME280;33473;51.640;5.892;2023-04-04T20:35:07;102400;;;11.1;39.0
47710;BME280;33473;51.640;5.892;2023-04-04T20:48:27;102400;;;10.8;41.0
47710;BME280;33473;51.640;5.892;2023-04-04T21:01:47;102400;;;10.6;41.0
47710;BME280;33473;51.640;5.892;2023-04-04T21:15:06;102400;;;10.5;41.0
47710;BME280;33473;51.640;5.892;2023-04-04T21:28:26;102400;;;10.3;39.0
47710;BME280;33473;51.640;5.892;2023-04-04T21:41:46;102400;;;10.1;40.0
47710;BME280;33473;51.640;5.892;2023-04-04T21:55:05;102400;;;9.9;41.0
47710;BME280;33473;51.640;5.892;2023-04-04T22:08:25;102400;;;9.8;42.0
47710;BME280;33473;51.640;5.892;2023-04-04T22:21:45;102400;;;9.6;41.0
47710;BME280;33473;51.640;5.892;2023-04-04T22:35:04;102400;;;9.4;42.0
47710;BME280;33473;51.640;5.892;2023-04-04T22:48:24;102400;;;9.0;45.0
47710;BME280;33473;51.640;5.892;2023-04-04T23:01:44;102400;;;8.7;44.0
47710;BME280;33473;51.640;5.892;2023-04-04T23:15:03;102400;;;8.4;44.0
47710;BME280;33473;51.640;5.892;2023-04-04T23:28:23;102400;;;8.1;44.0
47710;BME280;33473;51.640;5.892;2023-04-04T23:41:43;102300;;;8.0;44.0
47710;BME280;33473;51.640;5.892;2023-04-04T23:55:02;102400;;;7.6;45.0
